METAR Data
IDs: Format: Raw Decoded Include TAF

Data at: 1723 UTC 03 Jul 2020

METAR for:KDAY (Dayton/Cox Intl, OH, US)
Text:KDAY 031656Z 33008KT 10SM SCT060 BKN250 32/17 A3006 RMK AO2 SLP168 T03170167
Temperature: 31.7°C ( 89°F)
Dewpoint: 16.7°C ( 62°F) [RH = 41%]
Pressure (altimeter):30.06 inches Hg (1018.0 mb) [Sea level pressure: 1016.8 mb]
Winds:from the NNW (330 degrees) at 9 MPH (8 knots; 4.1 m/s)
Visibility:10 or more sm (16+ km)
Ceiling:25000 feet AGL
Clouds: scattered clouds at 6000 feet AGL, broken clouds at 25000 feet AGL